sensor_id;sensor_type;location;lat;lon;timestamp;P1;durP1;ratioP1;P2;durP2;ratioP2
17310;SDS011;8773;43.300;0.394;2022-09-27T00:01:56;1.07;;;1.00;;
17310;SDS011;8773;43.300;0.394;2022-09-27T00:04:26;1.57;;;1.27;;
17310;SDS011;8773;43.300;0.394;2022-09-27T00:06:54;1.27;;;1.13;;
17310;SDS011;8773;43.300;0.394;2022-09-27T00:09:22;2.10;;;1.20;;
17310;SDS011;8773;43.300;0.394;2022-09-27T00:11:50;1.30;;;1.10;;
17310;SDS011;8773;43.300;0.394;2022-09-27T00:14:18;2.60;;;1.30;;
17310;SDS011;8773;43.300;0.394;2022-09-27T00:16:46;1.30;;;1.10;;
17310;SDS011;8773;43.300;0.394;2022-09-27T00:19:15;1.77;;;1.10;;
17310;SDS011;8773;43.300;0.394;2022-09-27T00:21:46;1.43;;;1.10;;
17310;SDS011;8773;43.300;0.394;2022-09-27T00:24:16;1.20;;;1.10;;
17310;SDS011;8773;43.300;0.394;2022-09-27T00:26:45;1.93;;;1.10;;
17310;SDS011;8773;43.300;0.394;2022-09-27T00:29:14;1.50;;;1.40;;
17310;SDS011;8773;43.300;0.394;2022-09-27T00:31:44;1.23;;;1.20;;
17310;SDS011;8773;43.300;0.394;2022-09-27T00:34:15;2.77;;;1.00;;
17310;SDS011;8773;43.300;0.394;2022-09-27T00:36:47;1.20;;;1.10;;
17310;SDS011;8773;43.300;0.394;2022-09-27T00:39:17;2.23;;;1.00;;
17310;SDS011;8773;43.300;0.394;2022-09-27T00:41:45;0.90;;;0.90;;
17310;SDS011;8773;43.300;0.394;2022-09-27T00:47:29;1.63;;;1.10;;
17310;SDS011;8773;43.300;0.394;2022-09-27T00:50:03;1.83;;;1.07;;
17310;SDS011;8773;43.300;0.394;2022-09-27T00:52:40;2.30;;;1.30;;
17310;SDS011;8773;43.300;0.394;2022-09-27T00:55:13;1.27;;;1.17;;
17310;SDS011;8773;43.300;0.394;2022-09-27T00:57:45;1.13;;;0.90;;
17310;SDS011;8773;43.300;0.394;2022-09-27T01:00:15;4.17;;;1.27;;
17310;SDS011;8773;43.300;0.394;2022-09-27T01:02:45;2.60;;;1.30;;
17310;SDS011;8773;43.300;0.394;2022-09-27T01:05:16;0.93;;;0.83;;
17310;SDS011;8773;43.300;0.394;2022-09-27T01:07:48;1.73;;;1.37;;
17310;SDS011;8773;43.300;0.394;2022-09-27T01:10:17;1.60;;;1.00;;
17310;SDS011;8773;43.300;0.394;2022-09-27T01:12:52;1.27;;;1.13;;
17310;SDS011;8773;43.300;0.394;2022-09-27T01:15:28;2.03;;;1.60;;
17310;SDS011;8773;43.300;0.394;2022-09-27T01:18:07;1.53;;;1.23;;
17310;SDS011;8773;43.300;0.394;2022-09-27T01:21:16;2.67;;;1.40;;
17310;SDS011;8773;43.300;0.394;2022-09-27T01:24:13;1.43;;;1.20;;
17310;SDS011;8773;43.300;0.394;2022-09-27T01:27:06;1.57;;;1.47;;
17310;SDS011;8773;43.300;0.394;2022-09-27T01:29:57;2.50;;;1.30;;
17310;SDS011;8773;43.300;0.394;2022-09-27T01:32:44;2.30;;;1.50;;
17310;SDS011;8773;43.300;0.394;2022-09-27T01:35:19;2.80;;;1.40;;
17310;SDS011;8773;43.300;0.394;2022-09-27T01:37:57;1.40;;;1.30;;
17310;SDS011;8773;43.300;0.394;2022-09-27T01:40:38;2.10;;;1.57;;
17310;SDS011;8773;43.300;0.394;2022-09-27T01:43:11;1.60;;;1.27;;
17310;SDS011;8773;43.300;0.394;2022-09-27T01:45:47;2.00;;;1.30;;
17310;SDS011;8773;43.300;0.394;2022-09-27T01:48:21;1.57;;;1.40;;
17310;SDS011;8773;43.300;0.394;2022-09-27T01:50:51;2.87;;;1.70;;
17310;SDS011;8773;43.300;0.394;2022-09-27T01:53:24;1.63;;;1.50;;
17310;SDS011;8773;43.300;0.394;2022-09-27T01:55:56;1.80;;;1.70;;
17310;SDS011;8773;43.300;0.394;2022-09-27T01:58:31;2.60;;;2.40;;
17310;SDS011;8773;43.300;0.394;2022-09-27T02:01:05;2.40;;;2.20;;
17310;SDS011;8773;43.300;0.394;2022-09-27T02:03:35;2.23;;;1.83;;
17310;SDS011;8773;43.300;0.394;2022-09-27T02:06:08;1.53;;;1.40;;
17310;SDS011;8773;43.300;0.394;2022-09-27T02:08:40;1.60;;;1.50;;
17310;SDS011;8773;43.300;0.394;2022-09-27T02:11:12;1.50;;;1.40;;
17310;SDS011;8773;43.300;0.394;2022-09-27T02:13:42;1.53;;;1.43;;
17310;SDS011;8773;43.300;0.394;2022-09-27T02:16:18;1.37;;;1.27;;
17310;SDS011;8773;43.300;0.394;2022-09-27T02:18:52;1.30;;;1.30;;
17310;SDS011;8773;43.300;0.394;2022-09-27T02:21:30;1.97;;;1.40;;
17310;SDS011;8773;43.300;0.394;2022-09-27T02:24:05;1.90;;;1.20;;
17310;SDS011;8773;43.300;0.394;2022-09-27T02:26:37;1.20;;;1.10;;
17310;SDS011;8773;43.300;0.394;2022-09-27T02:29:09;1.10;;;1.00;;
17310;SDS011;8773;43.300;0.394;2022-09-27T02:31:42;1.50;;;1.13;;
17310;SDS011;8773;43.300;0.394;2022-09-27T02:34:12;1.73;;;1.17;;
17310;SDS011;8773;43.300;0.394;2022-09-27T02:36:46;1.47;;;1.37;;
17310;SDS011;8773;43.300;0.394;2022-09-27T02:39:15;1.30;;;1.30;;
17310;SDS011;8773;43.300;0.394;2022-09-27T02:41:44;1.20;;;1.10;;
17310;SDS011;8773;43.300;0.394;2022-09-27T02:44:12;1.73;;;1.00;;
17310;SDS011;8773;43.300;0.394;2022-09-27T02:46:48;1.20;;;1.10;;
17310;SDS011;8773;43.300;0.394;2022-09-27T02:49:31;1.23;;;1.13;;
17310;SDS011;8773;43.300;0.394;2022-09-27T02:52:12;1.27;;;1.07;;
17310;SDS011;8773;43.300;0.394;2022-09-27T02:54:51;1.10;;;1.10;;
17310;SDS011;8773;43.300;0.394;2022-09-27T02:57:29;1.40;;;1.20;;
17310;SDS011;8773;43.300;0.394;2022-09-27T03:00:07;2.20;;;1.47;;
17310;SDS011;8773;43.300;0.394;2022-09-27T03:02:43;1.10;;;1.10;;
17310;SDS011;8773;43.300;0.394;2022-09-27T03:05:19;1.13;;;1.13;;
17310;SDS011;8773;43.300;0.394;2022-09-27T03:07:49;1.30;;;1.30;;
17310;SDS011;8773;43.300;0.394;2022-09-27T03:10:18;1.20;;;1.20;;
17310;SDS011;8773;43.300;0.394;2022-09-27T03:12:47;1.27;;;1.27;;
17310;SDS011;8773;43.300;0.394;2022-09-27T03:15:16;1.30;;;1.20;;
17310;SDS011;8773;43.300;0.394;2022-09-27T03:17:46;1.07;;;1.07;;
17310;SDS011;8773;43.300;0.394;2022-09-27T03:20:14;1.00;;;1.00;;
17310;SDS011;8773;43.300;0.394;2022-09-27T03:22:43;1.17;;;1.10;;
17310;SDS011;8773;43.300;0.394;2022-09-27T03:25:12;0.90;;;0.90;;
17310;SDS011;8773;43.300;0.394;2022-09-27T03:27:40;1.93;;;1.20;;
17310;SDS011;8773;43.300;0.394;2022-09-27T03:30:11;1.90;;;1.10;;
17310;SDS011;8773;43.300;0.394;2022-09-27T03:32:41;1.00;;;1.00;;
17310;SDS011;8773;43.300;0.394;2022-09-27T03:35:12;1.10;;;1.00;;
17310;SDS011;8773;43.300;0.394;2022-09-27T03:37:40;0.90;;;0.90;;
17310;SDS011;8773;43.300;0.394;2022-09-27T03:40:09;1.30;;;1.30;;
17310;SDS011;8773;43.300;0.394;2022-09-27T03:42:38;2.70;;;2.50;;
17310;SDS011;8773;43.300;0.394;2022-09-27T03:45:11;1.67;;;1.40;;
17310;SDS011;8773;43.300;0.394;2022-09-27T03:47:39;1.40;;;1.03;;
17310;SDS011;8773;43.300;0.394;2022-09-27T03:50:12;1.10;;;1.10;;
17310;SDS011;8773;43.300;0.394;2022-09-27T03:52:41;1.00;;;1.00;;
17310;SDS011;8773;43.300;0.394;2022-09-27T03:55:09;0.80;;;0.80;;
17310;SDS011;8773;43.300;0.394;2022-09-27T03:57:38;0.80;;;0.80;;
17310;SDS011;8773;43.300;0.394;2022-09-27T04:00:11;1.00;;;0.80;;
17310;SDS011;8773;43.300;0.394;2022-09-27T04:02:39;0.70;;;0.70;;
17310;SDS011;8773;43.300;0.394;2022-09-27T04:05:08;0.70;;;0.70;;
17310;SDS011;8773;43.300;0.394;2022-09-27T04:07:38;0.47;;;0.47;;
17310;SDS011;8773;43.300;0.394;2022-09-27T04:10:06;0.67;;;0.67;;
17310;SDS011;8773;43.300;0.394;2022-09-27T04:12:35;0.53;;;0.53;;
17310;SDS011;8773;43.300;0.394;2022-09-27T04:15:07;0.63;;;0.60;;
17310;SDS011;8773;43.300;0.394;2022-09-27T04:17:35;0.70;;;0.70;;
17310;SDS011;8773;43.300;0.394;2022-09-27T04:20:04;0.43;;;0.40;;
17310;SDS011;8773;43.300;0.394;2022-09-27T04:22:33;1.10;;;0.60;;
17310;SDS011;8773;43.300;0.394;2022-09-27T04:25:02;0.60;;;0.60;;
17310;SDS011;8773;43.300;0.394;2022-09-27T04:27:31;0.60;;;0.60;;
17310;SDS011;8773;43.300;0.394;2022-09-27T04:29:59;0.50;;;0.50;;
17310;SDS011;8773;43.300;0.394;2022-09-27T04:32:27;0.70;;;0.50;;
17310;SDS011;8773;43.300;0.394;2022-09-27T04:34:55;1.60;;;0.80;;
17310;SDS011;8773;43.300;0.394;2022-09-27T04:37:41;0.57;;;0.57;;
17310;SDS011;8773;43.300;0.394;2022-09-27T04:40:12;1.53;;;0.83;;
17310;SDS011;8773;43.300;0.394;2022-09-27T04:42:42;0.93;;;0.83;;
17310;SDS011;8773;43.300;0.394;2022-09-27T04:45:10;2.00;;;1.10;;
17310;SDS011;8773;43.300;0.394;2022-09-27T04:47:41;1.13;;;1.00;;
17310;SDS011;8773;43.300;0.394;2022-09-27T04:50:09;1.20;;;1.03;;
17310;SDS011;8773;43.300;0.394;2022-09-27T04:52:39;0.87;;;0.87;;
17310;SDS011;8773;43.300;0.394;2022-09-27T04:55:08;0.80;;;0.80;;
17310;SDS011;8773;43.300;0.394;2022-09-27T04:57:38;1.50;;;0.97;;
17310;SDS011;8773;43.300;0.394;2022-09-27T05:00:07;1.00;;;1.00;;
17310;SDS011;8773;43.300;0.394;2022-09-27T05:02:36;0.70;;;0.70;;
17310;SDS011;8773;43.300;0.394;2022-09-27T05:05:05;1.03;;;1.00;;
17310;SDS011;8773;43.300;0.394;2022-09-27T05:07:33;1.80;;;0.93;;
17310;SDS011;8773;43.300;0.394;2022-09-27T05:10:01;1.00;;;0.90;;
17310;SDS011;8773;43.300;0.394;2022-09-27T05:12:29;0.93;;;0.77;;
17310;SDS011;8773;43.300;0.394;2022-09-27T05:15:02;0.60;;;0.60;;
17310;SDS011;8773;43.300;0.394;2022-09-27T05:17:31;1.00;;;0.73;;
17310;SDS011;8773;43.300;0.394;2022-09-27T05:19:59;1.63;;;1.00;;
17310;SDS011;8773;43.300;0.394;2022-09-27T05:22:27;2.57;;;1.10;;
17310;SDS011;8773;43.300;0.394;2022-09-27T05:24:55;1.87;;;1.00;;
17310;SDS011;8773;43.300;0.394;2022-09-27T05:27:24;2.97;;;1.53;;
17310;SDS011;8773;43.300;0.394;2022-09-27T05:29:52;1.60;;;1.30;;
17310;SDS011;8773;43.300;0.394;2022-09-27T05:32:21;2.80;;;1.60;;
17310;SDS011;8773;43.300;0.394;2022-09-27T05:34:50;5.20;;;1.60;;
17310;SDS011;8773;43.300;0.394;2022-09-27T05:37:19;3.70;;;1.40;;
17310;SDS011;8773;43.300;0.394;2022-09-27T05:39:47;3.20;;;1.73;;
17310;SDS011;8773;43.300;0.394;2022-09-27T05:42:15;4.00;;;1.80;;
17310;SDS011;8773;43.300;0.394;2022-09-27T05:44:44;3.23;;;1.60;;
17310;SDS011;8773;43.300;0.394;2022-09-27T05:47:13;6.13;;;1.83;;
17310;SDS011;8773;43.300;0.394;2022-09-27T05:49:43;3.23;;;1.53;;
17310;SDS011;8773;43.300;0.394;2022-09-27T05:52:11;4.53;;;2.23;;
17310;SDS011;8773;43.300;0.394;2022-09-27T05:54:42;3.87;;;2.27;;
17310;SDS011;8773;43.300;0.394;2022-09-27T05:57:13;3.40;;;2.20;;
17310;SDS011;8773;43.300;0.394;2022-09-27T05:59:41;2.23;;;1.70;;
17310;SDS011;8773;43.300;0.394;2022-09-27T06:02:09;4.73;;;2.20;;
17310;SDS011;8773;43.300;0.394;2022-09-27T06:04:38;3.57;;;1.93;;
17310;SDS011;8773;43.300;0.394;2022-09-27T06:07:09;3.03;;;2.40;;
17310;SDS011;8773;43.300;0.394;2022-09-27T06:09:37;2.10;;;1.70;;
17310;SDS011;8773;43.300;0.394;2022-09-27T06:12:05;5.30;;;2.17;;
17310;SDS011;8773;43.300;0.394;2022-09-27T06:14:36;4.23;;;2.43;;
17310;SDS011;8773;43.300;0.394;2022-09-27T06:17:04;3.73;;;2.67;;
17310;SDS011;8773;43.300;0.394;2022-09-27T06:19:32;4.03;;;2.43;;
17310;SDS011;8773;43.300;0.394;2022-09-27T06:22:00;5.20;;;2.70;;
17310;SDS011;8773;43.300;0.394;2022-09-27T06:24:31;5.60;;;2.90;;
17310;SDS011;8773;43.300;0.394;2022-09-27T06:26:59;5.03;;;2.63;;
17310;SDS011;8773;43.300;0.394;2022-09-27T06:29:27;5.37;;;2.73;;
17310;SDS011;8773;43.300;0.394;2022-09-27T06:32:01;5.13;;;2.10;;
17310;SDS011;8773;43.300;0.394;2022-09-27T06:34:29;5.83;;;2.53;;
17310;SDS011;8773;43.300;0.394;2022-09-27T06:36:57;5.63;;;2.33;;
17310;SDS011;8773;43.300;0.394;2022-09-27T06:39:25;7.23;;;3.00;;
17310;SDS011;8773;43.300;0.394;2022-09-27T06:41:55;6.27;;;2.53;;
17310;SDS011;8773;43.300;0.394;2022-09-27T06:44:23;8.40;;;2.83;;
17310;SDS011;8773;43.300;0.394;2022-09-27T06:46:51;4.77;;;2.27;;
17310;SDS011;8773;43.300;0.394;2022-09-27T06:49:20;4.20;;;2.60;;
17310;SDS011;8773;43.300;0.394;2022-09-27T06:51:50;4.00;;;2.20;;
17310;SDS011;8773;43.300;0.394;2022-09-27T06:54:20;5.17;;;2.50;;
17310;SDS011;8773;43.300;0.394;2022-09-27T06:56:48;5.37;;;2.40;;
17310;SDS011;8773;43.300;0.394;2022-09-27T06:59:17;9.00;;;2.90;;
17310;SDS011;8773;43.300;0.394;2022-09-27T07:02:02;10.67;;;3.17;;
17310;SDS011;8773;43.300;0.394;2022-09-27T07:04:30;5.30;;;2.50;;
17310;SDS011;8773;43.300;0.394;2022-09-27T07:06:59;8.13;;;2.57;;
17310;SDS011;8773;43.300;0.394;2022-09-27T07:09:27;6.37;;;2.50;;
17310;SDS011;8773;43.300;0.394;2022-09-27T07:11:55;4.50;;;2.30;;
17310;SDS011;8773;43.300;0.394;2022-09-27T07:14:25;6.57;;;2.63;;
17310;SDS011;8773;43.300;0.394;2022-09-27T07:16:53;9.67;;;2.63;;
17310;SDS011;8773;43.300;0.394;2022-09-27T07:19:21;13.23;;;3.37;;
17310;SDS011;8773;43.300;0.394;2022-09-27T07:21:49;9.03;;;3.77;;
17310;SDS011;8773;43.300;0.394;2022-09-27T07:24:18;9.40;;;3.27;;
17310;SDS011;8773;43.300;0.394;2022-09-27T07:26:46;11.47;;;3.33;;
17310;SDS011;8773;43.300;0.394;2022-09-27T07:29:14;10.13;;;3.57;;
17310;SDS011;8773;43.300;0.394;2022-09-27T07:31:44;9.20;;;3.57;;
17310;SDS011;8773;43.300;0.394;2022-09-27T07:34:12;6.83;;;2.87;;
17310;SDS011;8773;43.300;0.394;2022-09-27T07:36:43;9.73;;;3.37;;
17310;SDS011;8773;43.300;0.394;2022-09-27T07:39:11;12.57;;;3.87;;
17310;SDS011;8773;43.300;0.394;2022-09-27T07:41:41;8.83;;;2.83;;
17310;SDS011;8773;43.300;0.394;2022-09-27T07:44:10;8.67;;;3.17;;
17310;SDS011;8773;43.300;0.394;2022-09-27T07:46:39;10.33;;;3.37;;
17310;SDS011;8773;43.300;0.394;2022-09-27T07:49:08;7.73;;;3.23;;
17310;SDS011;8773;43.300;0.394;2022-09-27T07:51:36;8.93;;;3.03;;
17310;SDS011;8773;43.300;0.394;2022-09-27T07:54:04;7.97;;;3.40;;
17310;SDS011;8773;43.300;0.394;2022-09-27T07:56:34;10.17;;;3.60;;
17310;SDS011;8773;43.300;0.394;2022-09-27T07:59:02;8.37;;;3.67;;
17310;SDS011;8773;43.300;0.394;2022-09-27T08:01:30;9.20;;;3.27;;
17310;SDS011;8773;43.300;0.394;2022-09-27T08:04:00;7.30;;;3.30;;
17310;SDS011;8773;43.300;0.394;2022-09-27T08:06:29;13.47;;;4.20;;
17310;SDS011;8773;43.300;0.394;2022-09-27T08:08:58;6.70;;;3.03;;
17310;SDS011;8773;43.300;0.394;2022-09-27T08:11:29;7.03;;;2.70;;
17310;SDS011;8773;43.300;0.394;2022-09-27T08:13:57;8.97;;;3.10;;
17310;SDS011;8773;43.300;0.394;2022-09-27T08:16:25;6.50;;;2.70;;
17310;SDS011;8773;43.300;0.394;2022-09-27T08:18:53;6.37;;;2.97;;
17310;SDS011;8773;43.300;0.394;2022-09-27T08:21:21;6.77;;;2.50;;
17310;SDS011;8773;43.300;0.394;2022-09-27T08:23:51;5.80;;;2.83;;
17310;SDS011;8773;43.300;0.394;2022-09-27T08:26:20;9.07;;;2.70;;
17310;SDS011;8773;43.300;0.394;2022-09-27T08:28:49;18.60;;;15.43;;
17310;SDS011;8773;43.300;0.394;2022-09-27T08:31:17;7.73;;;4.30;;
17310;SDS011;8773;43.300;0.394;2022-09-27T08:33:47;6.10;;;2.93;;
17310;SDS011;8773;43.300;0.394;2022-09-27T08:36:15;8.87;;;3.07;;
17310;SDS011;8773;43.300;0.394;2022-09-27T08:38:47;6.67;;;3.87;;
17310;SDS011;8773;43.300;0.394;2022-09-27T08:41:21;8.93;;;3.60;;
17310;SDS011;8773;43.300;0.394;2022-09-27T08:44:04;6.97;;;2.90;;
17310;SDS011;8773;43.300;0.394;2022-09-27T08:46:40;7.37;;;3.13;;
17310;SDS011;8773;43.300;0.394;2022-09-27T08:49:22;5.13;;;2.90;;
17310;SDS011;8773;43.300;0.394;2022-09-27T08:51:53;9.83;;;5.70;;
17310;SDS011;8773;43.300;0.394;2022-09-27T08:54:23;6.50;;;3.10;;
17310;SDS011;8773;43.300;0.394;2022-09-27T08:56:58;5.87;;;2.90;;
17310;SDS011;8773;43.300;0.394;2022-09-27T08:59:33;8.63;;;3.00;;
17310;SDS011;8773;43.300;0.394;2022-09-27T09:02:08;8.27;;;3.00;;
17310;SDS011;8773;43.300;0.394;2022-09-27T09:04:44;7.83;;;3.37;;
17310;SDS011;8773;43.300;0.394;2022-09-27T09:07:20;8.17;;;3.03;;
17310;SDS011;8773;43.300;0.394;2022-09-27T09:10:00;8.00;;;3.10;;
17310;SDS011;8773;43.300;0.394;2022-09-27T09:12:37;5.77;;;2.80;;
17310;SDS011;8773;43.300;0.394;2022-09-27T09:15:17;6.90;;;2.43;;
17310;SDS011;8773;43.300;0.394;2022-09-27T09:17:54;7.20;;;2.97;;
17310;SDS011;8773;43.300;0.394;2022-09-27T09:20:50;5.97;;;2.53;;
17310;SDS011;8773;43.300;0.394;2022-09-27T09:23:37;7.40;;;2.43;;
17310;SDS011;8773;43.300;0.394;2022-09-27T09:26:24;6.07;;;2.70;;
17310;SDS011;8773;43.300;0.394;2022-09-27T09:29:09;7.37;;;3.03;;
17310;SDS011;8773;43.300;0.394;2022-09-27T09:31:46;9.43;;;3.67;;
17310;SDS011;8773;43.300;0.394;2022-09-27T09:34:25;7.27;;;3.13;;
17310;SDS011;8773;43.300;0.394;2022-09-27T09:36:58;10.73;;;3.30;;
17310;SDS011;8773;43.300;0.394;2022-09-27T09:39:32;10.67;;;3.23;;
17310;SDS011;8773;43.300;0.394;2022-09-27T09:42:06;9.73;;;3.60;;
17310;SDS011;8773;43.300;0.394;2022-09-27T09:44:43;12.23;;;3.60;;
17310;SDS011;8773;43.300;0.394;2022-09-27T09:47:20;9.47;;;3.50;;
17310;SDS011;8773;43.300;0.394;2022-09-27T09:49:55;7.17;;;2.90;;
17310;SDS011;8773;43.300;0.394;2022-09-27T09:52:31;9.67;;;3.00;;
17310;SDS011;8773;43.300;0.394;2022-09-27T09:55:06;8.03;;;2.70;;
17310;SDS011;8773;43.300;0.394;2022-09-27T09:57:47;5.70;;;2.70;;
17310;SDS011;8773;43.300;0.394;2022-09-27T10:00:22;8.27;;;3.03;;
17310;SDS011;8773;43.300;0.394;2022-09-27T10:02:51;5.43;;;3.03;;
17310;SDS011;8773;43.300;0.394;2022-09-27T10:05:25;5.67;;;2.53;;
17310;SDS011;8773;43.300;0.394;2022-09-27T10:07:56;7.17;;;3.00;;
17310;SDS011;8773;43.300;0.394;2022-09-27T10:10:28;6.23;;;2.67;;
17310;SDS011;8773;43.300;0.394;2022-09-27T10:12:57;7.97;;;2.80;;
17310;SDS011;8773;43.300;0.394;2022-09-27T10:15:27;7.47;;;3.10;;
17310;SDS011;8773;43.300;0.394;2022-09-27T10:17:56;8.50;;;2.80;;
17310;SDS011;8773;43.300;0.394;2022-09-27T10:20:29;5.73;;;2.83;;
17310;SDS011;8773;43.300;0.394;2022-09-27T10:23:02;6.63;;;2.80;;
17310;SDS011;8773;43.300;0.394;2022-09-27T10:28:31;5.60;;;2.40;;
17310;SDS011;8773;43.300;0.394;2022-09-27T10:31:04;6.47;;;2.83;;
17310;SDS011;8773;43.300;0.394;2022-09-27T10:33:34;5.75;;;2.50;;
17310;SDS011;8773;43.300;0.394;2022-09-27T10:36:20;4.53;;;2.57;;
17310;SDS011;8773;43.300;0.394;2022-09-27T10:38:51;3.85;;;2.70;;
17310;SDS011;8773;43.300;0.394;2022-09-27T10:41:22;2.53;;;1.73;;
17310;SDS011;8773;43.300;0.394;2022-09-27T10:43:53;3.53;;;1.60;;
17310;SDS011;8773;43.300;0.394;2022-09-27T10:46:25;3.72;;;2.00;;
17310;SDS011;8773;43.300;0.394;2022-09-27T10:49:07;5.40;;;2.20;;
17310;SDS011;8773;43.300;0.394;2022-09-27T10:51:38;3.03;;;2.15;;
17310;SDS011;8773;43.300;0.394;2022-09-27T10:54:15;3.95;;;2.17;;
17310;SDS011;8773;43.300;0.394;2022-09-27T10:56:52;2.72;;;1.70;;
17310;SDS011;8773;43.300;0.394;2022-09-27T10:59:22;1.20;;;1.10;;
17310;SDS011;8773;43.300;0.394;2022-09-27T11:01:53;2.95;;;1.40;;
17310;SDS011;8773;43.300;0.394;2022-09-27T11:04:22;2.03;;;1.60;;
17310;SDS011;8773;43.300;0.394;2022-09-27T11:07:05;1.30;;;1.20;;
17310;SDS011;8773;43.300;0.394;2022-09-27T11:09:43;1.73;;;1.60;;
17310;SDS011;8773;43.300;0.394;2022-09-27T11:12:15;1.27;;;0.98;;
17310;SDS011;8773;43.300;0.394;2022-09-27T11:14:50;1.20;;;1.10;;
17310;SDS011;8773;43.300;0.394;2022-09-27T11:17:23;1.25;;;1.15;;
17310;SDS011;8773;43.300;0.394;2022-09-27T11:22:57;1.77;;;1.15;;
17310;SDS011;8773;43.300;0.394;2022-09-27T11:25:49;1.27;;;1.13;;
17310;SDS011;8773;43.300;0.394;2022-09-27T11:28:31;1.47;;;1.30;;
17310;SDS011;8773;43.300;0.394;2022-09-27T11:31:12;3.45;;;1.67;;
17310;SDS011;8773;43.300;0.394;2022-09-27T11:33:56;2.35;;;1.48;;
17310;SDS011;8773;43.300;0.394;2022-09-27T11:36:39;1.23;;;1.13;;
17310;SDS011;8773;43.300;0.394;2022-09-27T11:39:22;2.83;;;1.70;;
17310;SDS011;8773;43.300;0.394;2022-09-27T11:42:02;2.22;;;1.35;;
17310;SDS011;8773;43.300;0.394;2022-09-27T11:44:43;2.05;;;1.80;;
17310;SDS011;8773;43.300;0.394;2022-09-27T11:47:43;2.87;;;1.57;;
17310;SDS011;8773;43.300;0.394;2022-09-27T11:50:29;2.38;;;1.63;;
17310;SDS011;8773;43.300;0.394;2022-09-27T11:53:27;1.38;;;1.15;;
17310;SDS011;8773;43.300;0.394;2022-09-27T11:56:08;1.47;;;1.37;;
17310;SDS011;8773;43.300;0.394;2022-09-27T11:58:46;3.70;;;1.48;;
17310;SDS011;8773;43.300;0.394;2022-09-27T12:01:26;2.20;;;1.60;;
17310;SDS011;8773;43.300;0.394;2022-09-27T12:07:08;3.70;;;1.70;;
17310;SDS011;8773;43.300;0.394;2022-09-27T12:09:44;3.55;;;1.45;;
17310;SDS011;8773;43.300;0.394;2022-09-27T12:12:17;3.03;;;2.00;;
17310;SDS011;8773;43.300;0.394;2022-09-27T12:14:51;2.08;;;1.60;;
17310;SDS011;8773;43.300;0.394;2022-09-27T12:17:23;1.83;;;1.40;;
17310;SDS011;8773;43.300;0.394;2022-09-27T12:19:54;2.90;;;2.03;;
17310;SDS011;8773;43.300;0.394;2022-09-27T12:22:27;3.25;;;1.50;;
17310;SDS011;8773;43.300;0.394;2022-09-27T12:25:20;2.35;;;1.50;;
17310;SDS011;8773;43.300;0.394;2022-09-27T12:27:53;3.45;;;1.75;;
17310;SDS011;8773;43.300;0.394;2022-09-27T12:30:24;4.70;;;1.73;;
17310;SDS011;8773;43.300;0.394;2022-09-27T12:32:55;3.33;;;1.92;;
17310;SDS011;8773;43.300;0.394;2022-09-27T12:35:31;4.97;;;1.90;;
17310;SDS011;8773;43.300;0.394;2022-09-27T12:38:10;5.35;;;1.88;;
17310;SDS011;8773;43.300;0.394;2022-09-27T12:40:42;8.73;;;2.20;;
17310;SDS011;8773;43.300;0.394;2022-09-27T12:43:15;10.52;;;2.65;;
17310;SDS011;8773;43.300;0.394;2022-09-27T12:45:49;8.40;;;2.38;;
17310;SDS011;8773;43.300;0.394;2022-09-27T12:48:26;12.43;;;3.00;;
17310;SDS011;8773;43.300;0.394;2022-09-27T12:51:03;6.60;;;2.30;;
17310;SDS011;8773;43.300;0.394;2022-09-27T12:53:42;4.82;;;2.20;;
17310;SDS011;8773;43.300;0.394;2022-09-27T12:56:27;5.53;;;2.67;;
17310;SDS011;8773;43.300;0.394;2022-09-27T12:59:20;6.37;;;2.70;;
17310;SDS011;8773;43.300;0.394;2022-09-27T13:05:34;7.23;;;2.83;;
17310;SDS011;8773;43.300;0.394;2022-09-27T13:08:27;9.50;;;3.07;;
17310;SDS011;8773;43.300;0.394;2022-09-27T13:11:21;8.60;;;2.60;;
17310;SDS011;8773;43.300;0.394;2022-09-27T13:13:53;10.20;;;3.40;;
17310;SDS011;8773;43.300;0.394;2022-09-27T13:16:23;7.83;;;3.47;;
17310;SDS011;8773;43.300;0.394;2022-09-27T13:18:53;8.85;;;2.92;;
17310;SDS011;8773;43.300;0.394;2022-09-27T13:24:29;7.40;;;3.05;;
17310;SDS011;8773;43.300;0.394;2022-09-27T13:36:18;27.50;;;21.80;;
17310;SDS011;8773;43.300;0.394;2022-09-27T13:41:53;8.88;;;3.75;;
17310;SDS011;8773;43.300;0.394;2022-09-27T13:44:34;9.65;;;3.53;;
17310;SDS011;8773;43.300;0.394;2022-09-27T13:47:15;9.07;;;3.30;;
17310;SDS011;8773;43.300;0.394;2022-09-27T13:49:53;9.88;;;3.47;;
17310;SDS011;8773;43.300;0.394;2022-09-27T13:52:30;10.13;;;3.90;;
17310;SDS011;8773;43.300;0.394;2022-09-27T13:55:02;10.82;;;3.85;;
17310;SDS011;8773;43.300;0.394;2022-09-27T13:57:44;8.57;;;3.92;;
17310;SDS011;8773;43.300;0.394;2022-09-27T14:00:20;10.80;;;3.65;;
17310;SDS011;8773;43.300;0.394;2022-09-27T14:02:53;10.95;;;3.80;;
17310;SDS011;8773;43.300;0.394;2022-09-27T14:05:30;13.20;;;4.15;;
17310;SDS011;8773;43.300;0.394;2022-09-27T14:08:02;11.18;;;3.90;;
17310;SDS011;8773;43.300;0.394;2022-09-27T14:10:32;10.68;;;4.07;;
17310;SDS011;8773;43.300;0.394;2022-09-27T14:13:02;10.98;;;3.85;;
17310;SDS011;8773;43.300;0.394;2022-09-27T14:15:34;13.48;;;4.43;;
17310;SDS011;8773;43.300;0.394;2022-09-27T14:18:02;11.77;;;4.40;;
17310;SDS011;8773;43.300;0.394;2022-09-27T14:20:33;12.60;;;4.95;;
17310;SDS011;8773;43.300;0.394;2022-09-27T14:23:04;19.07;;;4.53;;
17310;SDS011;8773;43.300;0.394;2022-09-27T14:25:32;9.43;;;3.33;;
17310;SDS011;8773;43.300;0.394;2022-09-27T14:28:00;10.10;;;3.33;;
17310;SDS011;8773;43.300;0.394;2022-09-27T14:30:28;9.47;;;3.30;;
17310;SDS011;8773;43.300;0.394;2022-09-27T14:32:58;11.53;;;3.50;;
17310;SDS011;8773;43.300;0.394;2022-09-27T14:35:27;10.37;;;3.67;;
17310;SDS011;8773;43.300;0.394;2022-09-27T14:38:14;8.83;;;3.70;;
17310;SDS011;8773;43.300;0.394;2022-09-27T14:41:03;19.50;;;5.10;;
17310;SDS011;8773;43.300;0.394;2022-09-27T14:43:33;19.47;;;5.17;;
17310;SDS011;8773;43.300;0.394;2022-09-27T14:46:03;12.57;;;4.00;;
17310;SDS011;8773;43.300;0.394;2022-09-27T14:48:35;15.13;;;4.20;;
17310;SDS011;8773;43.300;0.394;2022-09-27T14:51:16;14.40;;;4.40;;
17310;SDS011;8773;43.300;0.394;2022-09-27T14:53:47;12.93;;;4.20;;
17310;SDS011;8773;43.300;0.394;2022-09-27T14:56:19;13.93;;;5.03;;
17310;SDS011;8773;43.300;0.394;2022-09-27T14:58:54;15.77;;;4.17;;
17310;SDS011;8773;43.300;0.394;2022-09-27T15:01:27;11.37;;;4.17;;
17310;SDS011;8773;43.300;0.394;2022-09-27T15:04:01;14.43;;;4.37;;
17310;SDS011;8773;43.300;0.394;2022-09-27T15:06:33;13.33;;;4.50;;
17310;SDS011;8773;43.300;0.394;2022-09-27T15:09:02;18.13;;;5.60;;
17310;SDS011;8773;43.300;0.394;2022-09-27T15:11:31;13.60;;;4.47;;
17310;SDS011;8773;43.300;0.394;2022-09-27T15:14:02;11.77;;;5.00;;
17310;SDS011;8773;43.300;0.394;2022-09-27T15:16:32;14.67;;;4.17;;
17310;SDS011;8773;43.300;0.394;2022-09-27T15:19:04;14.00;;;4.90;;
17310;SDS011;8773;43.300;0.394;2022-09-27T15:21:41;8.23;;;3.47;;
17310;SDS011;8773;43.300;0.394;2022-09-27T15:27:12;11.83;;;4.13;;
17310;SDS011;8773;43.300;0.394;2022-09-27T15:29:46;10.67;;;4.33;;
17310;SDS011;8773;43.300;0.394;2022-09-27T15:32:17;14.90;;;4.30;;
17310;SDS011;8773;43.300;0.394;2022-09-27T15:34:50;17.83;;;4.93;;
17310;SDS011;8773;43.300;0.394;2022-09-27T15:37:23;15.47;;;5.00;;
17310;SDS011;8773;43.300;0.394;2022-09-27T15:39:54;22.60;;;6.43;;
17310;SDS011;8773;43.300;0.394;2022-09-27T15:42:39;14.17;;;5.40;;
17310;SDS011;8773;43.300;0.394;2022-09-27T15:45:26;15.83;;;4.27;;
17310;SDS011;8773;43.300;0.394;2022-09-27T15:47:55;12.03;;;4.60;;
17310;SDS011;8773;43.300;0.394;2022-09-27T15:50:39;11.53;;;4.23;;
17310;SDS011;8773;43.300;0.394;2022-09-27T15:53:08;17.10;;;5.37;;
17310;SDS011;8773;43.300;0.394;2022-09-27T15:55:38;13.97;;;4.60;;
17310;SDS011;8773;43.300;0.394;2022-09-27T15:58:11;13.10;;;4.57;;
17310;SDS011;8773;43.300;0.394;2022-09-27T16:00:51;13.33;;;4.43;;
17310;SDS011;8773;43.300;0.394;2022-09-27T16:03:21;11.30;;;4.20;;
17310;SDS011;8773;43.300;0.394;2022-09-27T16:05:52;13.80;;;4.53;;
17310;SDS011;8773;43.300;0.394;2022-09-27T16:08:21;12.40;;;4.30;;